Time;durP1;ratioP1;P1;durP2;ratioP2;P2;SDS_P1;SDS_P2;PMS_P1;PMS_P2;Temp;Humidity;BMP_temperature;BMP_pressure;BME280_temperature;BME280_humidity;BME280_pressure;Samples;Min_cycle;Max_cycle;Signal;HPM_P1;HPM_P2
2022/03/08 00:01:20;;;;;;;31.00;21.63;;;;;;;4.04;37.26;97977.50;5033671;28;20219;-68
2022/03/08 00:03:46;;;;;;;32.00;20.90;;;;;;;3.93;37.16;97975.53;5034022;28;20179;-67
2022/03/08 00:06:11;;;;;;;34.20;22.00;;;;;;;3.98;36.86;97970.91;5033288;28;20188;-70
2022/03/08 00:08:37;;;;;;;33.57;21.33;;;;;;;3.99;37.38;97976.00;5034261;28;20176;-69
2022/03/08 00:11:03;;;;;;;33.07;20.70;;;;;;;4.05;37.58;97977.38;5033825;28;20306;-69
2022/03/08 00:13:29;;;;;;;34.20;20.70;;;;;;;4.07;36.80;97972.94;5033683;28;20203;-70
2022/03/08 00:15:55;;;;;;;38.33;22.43;;;;;;;4.08;37.17;97977.22;5034511;28;20459;-70
2022/03/08 00:18:20;;;;;;;32.07;21.50;;;;;;;4.09;37.08;97983.25;5027155;28;20841;-70
2022/03/08 00:20:46;;;;;;;37.97;20.70;;;;;;;4.06;36.92;97976.47;5037543;28;20212;-70
2022/03/08 00:23:11;;;;;;;33.23;22.43;;;;;;;4.01;36.96;97978.50;5035037;28;20220;-70
2022/03/08 00:25:37;;;;;;;37.87;21.67;;;;;;;3.99;36.99;97980.38;5033314;28;20188;-70
2022/03/08 00:28:02;;;;;;;36.80;21.73;;;;;;;3.98;36.95;97973.50;5033900;28;20712;-70
2022/03/08 00:30:29;;;;;;;34.07;22.03;;;;;;;3.93;37.17;97980.72;5035957;28;20196;-70
2022/03/08 00:32:54;;;;;;;35.00;21.43;;;;;;;3.81;37.50;97977.94;5032821;28;20222;-72
2022/03/08 00:35:20;;;;;;;30.20;19.10;;;;;;;3.80;37.47;97976.25;5032640;28;20901;-71
2022/03/08 00:37:49;;;;;;;30.10;20.87;;;;;;;3.76;37.99;97972.19;5033816;28;20195;-69
2022/03/08 00:40:17;;;;;;;36.53;20.93;;;;;;;3.79;37.24;97977.19;5033213;28;20545;-71
2022/03/08 00:42:42;;;;;;;30.30;19.83;;;;;;;3.74;37.32;97976.63;5033448;28;20419;-70
2022/03/08 00:45:09;;;;;;;34.93;20.90;;;;;;;3.68;37.89;97977.84;5032733;28;20432;-70
2022/03/08 00:47:36;;;;;;;32.10;19.77;;;;;;;3.66;37.94;97989.19;5025068;28;20176;-70
2022/03/08 00:50:03;;;;;;;31.07;18.80;;;;;;;3.56;37.67;97986.31;5014505;28;20488;-70
2022/03/08 00:52:29;;;;;;;27.00;18.27;;;;;;;3.59;37.79;97974.94;5032687;28;20419;-69
2022/03/08 00:54:54;;;;;;;38.93;18.90;;;;;;;3.62;38.08;97979.94;5025950;28;20454;-70
2022/03/08 00:57:19;;;;;;;34.90;19.37;;;;;;;3.56;37.81;97977.69;5022794;28;20195;-70
2022/03/08 00:59:45;;;;;;;33.60;19.97;;;;;;;3.45;38.21;97973.97;5032577;28;20229;-70
2022/03/08 01:02:10;;;;;;;30.47;19.77;;;;;;;3.49;38.31;97985.84;5027104;28;20203;-71
2022/03/08 01:04:36;;;;;;;32.67;20.20;;;;;;;3.48;38.59;97978.13;5032813;28;20241;-70
2022/03/08 01:07:01;;;;;;;31.47;20.10;;;;;;;3.54;38.34;97975.22;5032644;28;20565;-70
2022/03/08 01:09:27;;;;;;;30.67;19.77;;;;;;;3.56;38.10;97962.16;5032026;28;20192;-69
2022/03/08 01:11:52;;;;;;;29.90;18.80;;;;;;;3.54;38.13;97965.66;5026669;28;20698;-69
2022/03/08 01:14:18;;;;;;;33.40;20.53;;;;;;;3.50;38.51;97974.56;5030676;28;20264;-69
2022/03/08 01:16:43;;;;;;;30.50;19.83;;;;;;;3.49;38.21;97962.50;5024256;28;20655;-70
2022/03/08 01:19:09;;;;;;;30.43;19.80;;;;;;;3.50;38.01;97966.78;5032396;28;20180;-70
2022/03/08 01:21:36;;;;;;;31.03;19.27;;;;;;;3.50;38.24;97963.34;5032596;28;20204;-70
2022/03/08 01:24:02;;;;;;;35.30;19.37;;;;;;;3.49;38.36;97962.50;5032170;28;20704;-69
2022/03/08 01:26:28;;;;;;;33.00;20.40;;;;;;;3.42;38.51;97955.19;5013404;28;20469;-69
2022/03/08 01:28:53;;;;;;;31.90;20.57;;;;;;;3.44;38.53;97954.16;5032480;28;20423;-69
2022/03/08 01:31:19;;;;;;;32.53;19.97;;;;;;;3.40;38.63;97952.69;5032136;28;20205;-69
2022/03/08 01:33:44;;;;;;;29.83;19.97;;;;;;;3.41;38.78;97943.16;5032293;28;20203;-70
2022/03/08 01:36:11;;;;;;;32.80;20.73;;;;;;;3.42;38.51;97940.44;5031913;28;20214;-69
2022/03/08 01:38:37;;;;;;;30.93;20.10;;;;;;;3.35;38.57;97957.28;5032504;28;20195;-71
2022/03/08 01:41:02;;;;;;;30.53;19.63;;;;;;;3.36;38.73;97948.59;5032093;28;20536;-70
2022/03/08 01:43:28;;;;;;;27.90;19.07;;;;;;;3.30;38.88;97946.34;5031610;28;20180;-70
2022/03/08 01:45:54;;;;;;;30.83;19.30;;;;;;;3.26;38.81;97955.25;5031933;28;20187;-71
2022/03/08 01:48:19;;;;;;;26.67;18.07;;;;;;;3.25;38.76;97948.38;5031505;28;20331;-71
2022/03/08 01:50:46;;;;;;;28.03;18.57;;;;;;;3.25;38.96;97948.38;5032252;28;20210;-70
2022/03/08 01:53:12;;;;;;;30.80;19.20;;;;;;;3.21;39.08;97945.16;5014200;28;20188;-70
2022/03/08 01:55:38;;;;;;;33.67;20.70;;;;;;;3.17;38.92;97944.47;5013691;28;20802;-70
2022/03/08 01:58:03;;;;;;;31.40;18.57;;;;;;;3.05;39.04;97948.59;5031370;28;20427;-69
2022/03/08 02:00:31;;;;;;;31.47;19.37;;;;;;;3.03;38.68;97942.66;5031595;28;20207;-70
2022/03/08 02:02:57;;;;;;;32.00;19.03;;;;;;;3.06;39.28;97939.06;5013597;28;20931;-71
2022/03/08 02:05:24;;;;;;;30.37;18.80;;;;;;;3.09;39.33;97933.72;5031341;28;20443;-71
2022/03/08 02:07:50;;;;;;;33.40;21.00;;;;;;;3.07;39.24;97936.41;5031404;28;20429;-70
2022/03/08 02:10:15;;;;;;;33.70;20.03;;;;;;;3.14;39.15;97936.88;5031867;28;20902;-71
2022/03/08 02:12:41;;;;;;;33.33;19.90;;;;;;;3.10;39.40;97937.97;5032019;28;20199;-70
2022/03/08 02:15:12;;;;;;;32.13;18.90;;;;;;;3.06;39.30;97929.56;5013471;28;20230;-70
2022/03/08 02:17:37;;;;;;;28.37;18.60;;;;;;;3.07;38.94;97925.19;5033188;28;20427;-72
2022/03/08 02:20:03;;;;;;;31.20;18.60;;;;;;;3.01;39.07;97910.84;5034013;28;20549;-69
2022/03/08 02:22:28;;;;;;;31.50;19.87;;;;;;;3.00;39.24;97910.94;5031113;28;20191;-70
2022/03/08 02:24:53;;;;;;;35.93;19.37;;;;;;;2.99;39.29;97885.94;5032161;28;20259;-72
2022/03/08 02:27:19;;;;;;;31.37;19.40;;;;;;;2.98;39.15;97895.47;5032117;28;20263;-70
2022/03/08 02:29:45;;;;;;;28.70;18.77;;;;;;;2.98;39.23;97890.28;5031457;28;20181;-70
2022/03/08 02:32:11;;;;;;;28.33;18.93;;;;;;;2.83;39.58;97897.19;5030871;28;20200;-71
2022/03/08 02:34:36;;;;;;;28.13;18.33;;;;;;;2.83;39.66;97897.19;5013018;28;20454;-70
2022/03/08 02:37:06;;;;;;;28.07;17.97;;;;;;;2.77;39.70;97894.94;5031292;28;20533;-69
2022/03/08 02:39:31;;;;;;;26.57;18.27;;;;;;;2.78;39.52;97901.75;5030885;28;20303;-70
2022/03/08 02:41:57;;;;;;;29.77;19.00;;;;;;;2.66;39.78;97895.53;5030974;28;20526;-70
2022/03/08 02:44:22;;;;;;;29.97;19.70;;;;;;;2.67;39.68;97902.38;5030725;28;20213;-68
2022/03/08 02:46:48;;;;;;;32.13;17.93;;;;;;;2.64;40.04;97904.31;5031388;28;20665;-68
2022/03/08 02:49:13;;;;;;;29.60;18.20;;;;;;;2.68;40.03;97903.22;5031036;28;20274;-69
2022/03/08 02:51:39;;;;;;;29.40;18.40;;;;;;;2.70;39.74;97906.56;5030985;28;20203;-71
2022/03/08 02:54:04;;;;;;;30.10;19.10;;;;;;;2.72;39.47;97902.94;5030608;28;20188;-70
2022/03/08 02:56:30;;;;;;;30.13;18.53;;;;;;;2.70;39.65;97898.78;5030642;28;20314;-70
2022/03/08 02:58:55;;;;;;;27.03;18.43;;;;;;;2.68;39.90;97898.03;5030553;28;20199;-70
2022/03/08 03:01:21;;;;;;;37.33;19.33;;;;;;;2.67;39.77;97891.19;5030141;28;20298;-70
2022/03/08 03:03:47;;;;;;;33.33;18.30;;;;;;;2.63;39.99;97889.72;5031067;28;20598;-71
2022/03/08 03:06:12;;;;;;;29.30;18.10;;;;;;;2.64;40.23;97887.03;5030593;28;20195;-70
2022/03/08 03:08:37;;;;;;;30.37;17.90;;;;;;;2.63;39.90;97889.72;5030787;28;20184;-70
2022/03/08 03:11:03;;;;;;;35.27;20.17;;;;;;;2.66;39.88;97885.19;5013100;28;20251;-70
2022/03/08 03:13:28;;;;;;;32.20;20.00;;;;;;;2.65;39.50;97882.69;5030404;28;20184;-71
2022/03/08 03:15:54;;;;;;;30.00;18.80;;;;;;;2.65;39.89;97877.53;5030531;28;20241;-70
2022/03/08 03:18:19;;;;;;;39.47;19.50;;;;;;;2.60;39.75;97878.59;5030222;28;20191;-70
2022/03/08 03:20:45;;;;;;;28.60;17.87;;;;;;;2.50;40.05;97869.69;5030581;28;20232;-70
2022/03/08 03:23:10;;;;;;;30.23;18.80;;;;;;;2.46;40.22;97878.53;5034897;28;20207;-69
2022/03/08 03:25:36;;;;;;;31.37;19.03;;;;;;;2.46;40.27;97869.00;5034341;28;20203;-69
2022/03/08 03:28:01;;;;;;;31.70;19.43;;;;;;;2.47;40.47;97869.84;5034389;28;20743;-69
2022/03/08 03:30:26;;;;;;;31.40;19.33;;;;;;;2.44;40.01;97863.09;5034746;28;21253;-69
2022/03/08 03:32:52;;;;;;;33.10;19.10;;;;;;;2.51;40.38;97865.31;5034865;28;20180;-68
2022/03/08 03:35:18;;;;;;;28.83;17.93;;;;;;;2.48;40.09;97856.00;5034191;28;20188;-68
2022/03/08 03:37:44;;;;;;;32.53;18.70;;;;;;;2.46;40.21;97861.22;5034126;28;20179;-69
2022/03/08 03:40:10;;;;;;;28.97;17.73;;;;;;;2.49;40.11;97860.25;5034087;28;20287;-70
2022/03/08 03:42:35;;;;;;;33.40;18.00;;;;;;;2.34;40.64;97855.91;5033999;28;20421;-69
2022/03/08 03:45:01;;;;;;;31.27;18.87;;;;;;;2.32;40.62;97852.56;5033675;28;20794;-70
2022/03/08 03:47:26;;;;;;;30.30;18.33;;;;;;;2.26;40.76;97854.59;5016968;28;20735;-70
2022/03/08 03:49:52;;;;;;;32.07;18.20;;;;;;;2.28;40.66;97857.91;5036054;28;20237;-70
2022/03/08 03:52:17;;;;;;;27.83;18.70;;;;;;;2.24;40.94;97855.59;5035063;28;20275;-71
2022/03/08 03:54:43;;;;;;;29.80;18.03;;;;;;;2.22;40.71;97855.69;5033339;28;20184;-69
2022/03/08 03:57:11;;;;;;;27.30;17.63;;;;;;;2.15;41.01;97857.75;5033911;28;20184;-70
2022/03/08 03:59:37;;;;;;;32.00;18.30;;;;;;;2.11;41.24;97858.00;5034102;28;20216;-69
2022/03/08 04:02:03;;;;;;;29.47;18.83;;;;;;;1.98;41.67;97861.25;5034150;28;20970;-69
2022/03/08 04:04:28;;;;;;;29.83;18.20;;;;;;;1.98;41.59;97861.25;5033525;28;20194;-71
2022/03/08 04:06:54;;;;;;;35.73;18.90;;;;;;;2.01;41.46;97859.44;5034036;28;20556;-69
2022/03/08 04:09:19;;;;;;;31.00;17.93;;;;;;;2.06;41.34;97860.00;5033813;28;20207;-69
2022/03/08 04:11:45;;;;;;;31.00;18.30;;;;;;;2.06;41.44;97847.94;5033806;28;20442;-70
2022/03/08 04:14:10;;;;;;;30.93;19.00;;;;;;;2.03;41.45;97855.84;5033142;28;20242;-69
2022/03/08 04:16:36;;;;;;;32.93;18.47;;;;;;;1.98;41.55;97848.34;5041353;28;20211;-69
2022/03/08 04:19:01;;;;;;;30.23;17.87;;;;;;;2.01;41.68;97856.84;5034186;28;20188;-69
2022/03/08 04:21:27;;;;;;;33.70;18.87;;;;;;;2.03;41.50;97850.66;5033208;28;20239;-71
2022/03/08 04:23:52;;;;;;;30.53;18.70;;;;;;;2.06;41.64;97849.66;5033787;28;20184;-70
2022/03/08 04:26:18;;;;;;;29.50;18.70;;;;;;;1.99;41.51;97850.00;5032804;28;20191;-70
2022/03/08 04:28:43;;;;;;;33.97;17.67;;;;;;;1.99;41.08;97850.00;5015708;28;20282;-70
2022/03/08 04:31:09;;;;;;;31.33;18.23;;;;;;;1.91;41.45;97844.41;5034592;28;20232;-70
2022/03/08 04:33:34;;;;;;;30.57;18.73;;;;;;;1.95;41.48;97834.75;5038077;28;20274;-69
2022/03/08 04:35:59;;;;;;;34.30;17.90;;;;;;;1.97;41.20;97851.84;5033480;28;20218;-70
2022/03/08 04:38:25;;;;;;;33.90;18.07;;;;;;;1.97;41.04;97849.25;5033233;28;20180;-69
2022/03/08 04:40:51;;;;;;;28.97;17.10;;;;;;;1.95;41.75;97848.50;5032659;28;20215;-68
2022/03/08 04:43:16;;;;;;;25.20;16.50;;;;;;;1.92;41.28;97856.41;5032895;28;20698;-70
2022/03/08 04:45:41;;;;;;;30.23;17.90;;;;;;;1.80;41.70;97855.31;5015680;28;20587;-69
2022/03/08 04:48:07;;;;;;;28.10;18.07;;;;;;;1.76;41.61;97850.41;5035055;28;20263;-70
2022/03/08 04:50:33;;;;;;;30.27;17.00;;;;;;;1.75;41.60;97852.13;5022086;28;20226;-73
2022/03/08 04:52:58;;;;;;;24.97;15.97;;;;;;;1.82;41.39;97855.22;5038190;28;20665;-70
2022/03/08 04:55:23;;;;;;;34.37;18.47;;;;;;;1.88;41.65;97859.25;5037810;28;20251;-72
2022/03/08 04:57:49;;;;;;;28.00;17.80;;;;;;;1.89;41.46;97859.16;5038220;28;20234;-71
2022/03/08 05:00:15;;;;;;;32.67;18.43;;;;;;;1.87;41.22;97861.00;5032273;28;20625;-69
2022/03/08 05:02:43;;;;;;;27.77;16.73;;;;;;;1.62;41.62;97851.97;5033808;28;20200;-71
2022/03/08 05:05:09;;;;;;;34.03;17.57;;;;;;;1.59;42.07;97846.94;5033162;28;20415;-70
2022/03/08 05:07:36;;;;;;;31.20;16.60;;;;;;;1.68;41.96;97851.63;5033733;28;20486;-68
2022/03/08 05:10:04;;;;;;;28.77;16.73;;;;;;;1.80;42.17;97859.66;5032535;28;20433;-68
2022/03/08 05:12:30;;;;;;;28.60;17.90;;;;;;;1.90;41.42;97849.66;5033747;28;20815;-68
2022/03/08 05:14:56;;;;;;;25.00;16.13;;;;;;;1.92;41.52;97851.25;5033080;28;20817;-69
2022/03/08 05:17:21;;;;;;;26.47;16.33;;;;;;;1.94;41.28;97851.16;5033561;28;20411;-69
2022/03/08 05:19:47;;;;;;;28.97;17.80;;;;;;;1.72;41.68;97847.13;5032203;28;21072;-68
2022/03/08 05:22:13;;;;;;;26.00;16.70;;;;;;;1.79;41.60;97847.63;5032014;28;20715;-69
2022/03/08 05:24:38;;;;;;;23.67;15.70;;;;;;;1.80;41.76;97837.22;5014638;28;20590;-69
2022/03/08 05:27:05;;;;;;;28.57;18.00;;;;;;;1.79;41.53;97837.28;5031522;28;20559;-69
2022/03/08 05:29:31;;;;;;;28.73;17.00;;;;;;;1.78;41.65;97836.47;5032087;28;20187;-67
2022/03/08 05:31:56;;;;;;;27.03;17.53;;;;;;;1.78;41.53;97845.97;5014291;28;20450;-70
2022/03/08 05:34:22;;;;;;;36.10;19.30;;;;;;;1.80;41.90;97838.97;5012375;28;20434;-69
2022/03/08 05:36:47;;;;;;;32.70;18.00;;;;;;;1.81;42.35;97840.63;5028453;28;20191;-69
2022/03/08 05:39:13;;;;;;;28.60;17.27;;;;;;;1.73;41.40;97837.63;5031813;28;20210;-68
2022/03/08 05:41:38;;;;;;;26.30;15.97;;;;;;;1.72;41.63;97841.13;5031729;28;20238;-68
2022/03/08 05:44:04;;;;;;;25.40;15.90;;;;;;;1.69;42.10;97844.72;5031197;28;20566;-69
2022/03/08 05:46:29;;;;;;;22.67;15.77;;;;;;;1.76;41.88;97840.88;5030984;28;20247;-69
2022/03/08 05:48:55;;;;;;;24.73;15.70;;;;;;;1.80;41.97;97841.56;5031670;28;20189;-70
2022/03/08 05:51:20;;;;;;;25.53;15.43;;;;;;;1.82;41.71;97839.72;5030736;28;20204;-70
2022/03/08 05:53:46;;;;;;;28.00;16.93;;;;;;;1.85;41.74;97842.16;5031468;28;20206;-69
2022/03/08 05:56:11;;;;;;;31.73;19.17;;;;;;;1.64;41.91;97844.13;5013201;28;20186;-69
2022/03/08 05:58:37;;;;;;;33.60;19.77;;;;;;;1.65;41.83;97841.44;5031631;28;20238;-70
2022/03/08 06:01:02;;;;;;;39.00;23.70;;;;;;;1.65;42.49;97846.63;5031076;28;20215;-70
2022/03/08 06:03:28;;;;;;;37.63;20.90;;;;;;;1.65;42.26;97844.03;5012815;28;20637;-70
2022/03/08 06:05:53;;;;;;;30.33;19.63;;;;;;;1.76;42.19;97847.81;5030978;28;20186;-71
2022/03/08 06:08:19;;;;;;;32.80;19.80;;;;;;;1.84;41.96;97848.25;5029502;28;20964;-70
2022/03/08 06:10:44;;;;;;;34.07;19.03;;;;;;;1.90;41.84;97853.06;5030918;28;20294;-70
2022/03/08 06:13:09;;;;;;;30.53;17.57;;;;;;;1.82;42.18;97853.50;5031033;28;20208;-71
2022/03/08 06:15:35;;;;;;;21.33;14.90;;;;;;;1.93;41.67;97846.91;5030500;28;20772;-70
2022/03/08 06:18:00;;;;;;;24.80;14.00;;;;;;;2.02;41.35;97858.53;5031107;28;20242;-71
2022/03/08 06:20:26;;;;;;;22.37;14.40;;;;;;;2.04;41.41;97854.06;5012196;28;20302;-72
2022/03/08 06:22:51;;;;;;;22.33;14.63;;;;;;;2.22;40.81;97862.59;5031240;28;20187;-70
2022/03/08 06:25:18;;;;;;;24.60;14.73;;;;;;;2.52;40.22;97862.63;5035434;28;20188;-71
2022/03/08 06:27:43;;;;;;;23.50;16.47;;;;;;;2.87;39.77;97852.06;5031070;28;20265;-70
2022/03/08 06:30:10;;;;;;;26.57;16.33;;;;;;;3.06;39.35;97862.19;5030227;28;20919;-71
2022/03/08 06:32:35;;;;;;;29.50;16.63;;;;;;;3.19;39.44;97859.72;5028194;28;20304;-70
2022/03/08 06:35:00;;;;;;;22.27;14.80;;;;;;;3.46;38.90;97864.19;5030482;28;20509;-70
2022/03/08 06:37:26;;;;;;;22.57;15.40;;;;;;;3.65;38.23;97868.28;5030388;28;20202;-69
2022/03/08 06:39:51;;;;;;;22.10;13.60;;;;;;;3.90;38.18;97869.41;5033499;28;20207;-68
2022/03/08 06:42:18;;;;;;;21.07;13.30;;;;;;;4.18;37.30;97875.44;5029925;28;20208;-70
2022/03/08 06:44:44;;;;;;;19.60;12.60;;;;;;;4.35;36.78;97871.81;5013229;28;20184;-70
2022/03/08 06:47:09;;;;;;;16.60;11.00;;;;;;;4.56;35.82;97877.38;5030125;28;20765;-71
2022/03/08 06:49:39;;;;;;;31.60;13.70;;;;;;;4.67;37.14;97884.50;5028146;28;20288;-72
2022/03/08 06:52:06;;;;;;;19.10;11.97;;;;;;;4.97;35.97;97886.06;5029458;28;20211;-71
2022/03/08 06:54:31;;;;;;;17.70;12.30;;;;;;;4.97;37.41;97884.28;5029854;28;20924;-70
2022/03/08 06:56:57;;;;;;;15.77;11.67;;;;;;;5.08;36.25;97886.19;5029914;28;20422;-71
2022/03/08 06:59:23;;;;;;;20.87;11.73;;;;;;;5.38;35.68;97885.91;5030036;28;20604;-72
2022/03/08 07:01:49;;;;;;;15.70;12.00;;;;;;;5.58;36.50;97894.13;5029032;28;20203;-72
2022/03/08 07:04:14;;;;;;;17.07;12.03;;;;;;;5.71;35.98;97891.53;5030755;28;20476;-71
2022/03/08 07:06:40;;;;;;;22.33;11.87;;;;;;;5.83;35.65;97898.50;5030191;28;20241;-70
2022/03/08 07:09:05;;;;;;;14.37;10.90;;;;;;;5.91;34.56;97890.16;5012787;28;20280;-70
2022/03/08 07:11:31;;;;;;;14.40;10.27;;;;;;;5.90;34.41;97898.91;5030797;28;20444;-71
2022/03/08 07:13:56;;;;;;;13.50;10.40;;;;;;;5.96;33.40;97903.66;5030832;28;20192;-68
2022/03/08 07:16:22;;;;;;;20.87;10.07;;;;;;;5.86;33.92;97896.63;5030489;28;20583;-72
2022/03/08 07:18:48;;;;;;;17.17;9.67;;;;;;;5.95;33.44;97896.81;5030612;28;20182;-71
2022/03/08 07:21:13;;;;;;;16.50;11.23;;;;;;;5.89;33.11;97896.41;5030509;28;20458;-71
2022/03/08 07:23:39;;;;;;;17.10;10.80;;;;;;;5.75;33.53;97890.38;5012934;28;20218;-70
2022/03/08 07:26:05;;;;;;;19.73;9.70;;;;;;;5.68;33.64;97889.94;5030417;28;20183;-71
2022/03/08 07:28:30;;;;;;;13.73;9.60;;;;;;;5.77;33.18;97878.09;5030385;28;20180;-72
2022/03/08 07:30:56;;;;;;;12.03;9.13;;;;;;;5.79;33.04;97878.81;4996327;28;20211;-70
2022/03/08 07:33:21;;;;;;;13.00;9.47;;;;;;;5.77;32.86;97872.88;5030505;28;20187;-71
2022/03/08 07:35:46;;;;;;;13.63;9.30;;;;;;;5.77;33.25;97879.88;5030682;28;20187;-72
2022/03/08 07:38:12;;;;;;;17.90;9.40;;;;;;;5.76;33.45;97875.59;5030614;28;20285;-71
2022/03/08 07:40:37;;;;;;;16.37;10.10;;;;;;;5.79;33.20;97885.81;5030103;28;20207;-71
2022/03/08 07:43:03;;;;;;;13.83;9.63;;;;;;;5.81;33.17;97889.13;5030389;28;20746;-72
2022/03/08 07:45:29;;;;;;;17.40;9.40;;;;;;;5.74;34.01;97898.28;5029558;28;20596;-70
2022/03/08 07:47:55;;;;;;;11.70;9.63;;;;;;;5.74;33.80;97888.69;5030696;28;20213;-71
2022/03/08 07:50:22;;;;;;;14.10;10.07;;;;;;;5.74;33.61;97891.31;5030076;28;20480;-71
2022/03/08 07:52:48;;;;;;;14.00;10.30;;;;;;;5.74;33.98;97893.09;5030830;28;20196;-70
2022/03/08 07:55:13;;;;;;;11.47;9.17;;;;;;;5.63;34.04;97902.47;5029908;28;20533;-70
2022/03/08 07:57:39;;;;;;;14.40;10.10;;;;;;;5.65;34.12;97895.38;5030310;28;20483;-70
2022/03/08 08:00:05;;;;;;;13.00;9.20;;;;;;;5.64;34.43;97906.72;5029625;28;20249;-71
2022/03/08 08:02:31;;;;;;;10.83;8.90;;;;;;;5.71;34.14;97908.88;5029991;28;20238;-70
2022/03/08 08:04:56;;;;;;;17.13;10.50;;;;;;;5.85;34.56;97903.59;5029821;28;20970;-70
2022/03/08 08:07:22;;;;;;;14.27;9.77;;;;;;;5.91;33.89;97900.56;5031221;28;20180;-70
2022/03/08 08:09:47;;;;;;;12.17;9.67;;;;;;;6.01;33.83;97903.38;5033796;28;20339;-71
2022/03/08 08:12:13;;;;;;;11.87;8.70;;;;;;;6.28;33.84;97912.81;5033569;28;20211;-71
2022/03/08 08:14:39;;;;;;;13.73;10.10;;;;;;;6.47;33.50;97908.91;5033057;28;20778;-70
2022/03/08 08:17:05;;;;;;;12.67;9.90;;;;;;;6.59;32.97;97902.84;5033359;28;20219;-70
2022/03/08 08:19:30;;;;;;;16.50;10.57;;;;;;;6.91;32.81;97899.66;5033459;28;20959;-70
2022/03/08 08:21:56;;;;;;;17.67;10.50;;;;;;;6.95;32.53;97906.31;5033860;28;20270;-72
2022/03/08 08:24:21;;;;;;;22.10;10.87;;;;;;;7.27;32.16;97897.88;5039511;28;20204;-70
2022/03/08 08:26:47;;;;;;;12.57;10.10;;;;;;;7.69;32.25;97890.38;5029107;28;20188;-71
2022/03/08 08:29:12;;;;;;;32.53;10.30;;;;;;;7.96;31.87;97897.03;5033383;28;20182;-71
2022/03/08 08:31:38;;;;;;;20.73;9.80;;;;;;;8.27;31.10;97894.63;5033253;28;20202;-71
2022/03/08 08:34:03;;;;;;;15.93;10.47;;;;;;;8.51;30.48;97903.28;5032877;28;20182;-71
2022/03/08 08:36:29;;;;;;;12.37;9.30;;;;;;;8.48;30.70;97903.53;5033305;28;20191;-71
2022/03/08 08:38:54;;;;;;;12.93;9.90;;;;;;;8.88;29.76;97903.75;5033479;28;20262;-71
2022/03/08 08:41:20;;;;;;;14.40;9.70;;;;;;;8.97;29.98;97912.66;5033078;28;20226;-71
2022/03/08 08:43:45;;;;;;;11.60;9.60;;;;;;;9.20;29.42;97905.56;5033582;28;20569;-70
2022/03/08 08:46:11;;;;;;;13.60;10.10;;;;;;;9.45;29.24;97892.25;5032924;28;20187;-72
2022/03/08 08:48:36;;;;;;;12.97;10.00;;;;;;;9.70;28.79;97890.97;5033404;28;20554;-72
2022/03/08 08:51:02;;;;;;;11.50;9.80;;;;;;;9.61;28.39;97894.38;5033197;28;20199;-71
2022/03/08 08:53:27;;;;;;;11.80;9.60;;;;;;;9.90;28.56;97889.28;5015703;28;20656;-70
2022/03/08 08:55:53;;;;;;;15.40;10.43;;;;;;;9.93;28.48;97889.03;5018499;28;20303;-70
2022/03/08 08:58:18;;;;;;;10.60;9.40;;;;;;;10.19;28.16;97891.19;5000913;28;20618;-72
2022/03/08 09:00:44;;;;;;;10.40;9.00;;;;;;;10.31;27.64;97884.03;5018098;28;20212;-71
2022/03/08 09:03:14;;;;;;;11.80;9.63;;;;;;;10.44;27.73;97886.47;5036921;28;20193;-71
2022/03/08 09:05:41;;;;;;;10.77;9.60;;;;;;;10.10;27.51;97871.88;5036282;28;20270;-71
2022/03/08 09:08:07;;;;;;;11.37;9.50;;;;;;;10.15;27.16;97863.59;5037207;28;20433;-70
2022/03/08 09:10:32;;;;;;;10.90;8.90;;;;;;;10.28;27.19;97866.81;5028555;28;20452;-71
2022/03/08 09:12:58;;;;;;;11.97;8.43;;;;;;;10.25;26.79;97866.25;5017732;28;20261;-70
2022/03/08 09:15:23;;;;;;;9.57;8.47;;;;;;;10.13;26.90;97873.38;5032956;28;20188;-71
2022/03/08 09:17:49;;;;;;;12.23;8.77;;;;;;;10.43;26.86;97861.22;5032768;28;20337;-71
2022/03/08 09:20:14;;;;;;;11.07;8.57;;;;;;;10.52;26.63;97860.41;5014846;28;20222;-70
2022/03/08 09:22:40;;;;;;;10.20;7.33;;;;;;;10.65;26.28;97859.31;5033422;28;20183;-71
2022/03/08 09:25:07;;;;;;;10.47;8.37;;;;;;;10.75;26.53;97863.59;5032833;28;20281;-70
2022/03/08 09:27:34;;;;;;;11.77;8.50;;;;;;;10.49;26.49;97860.66;5024114;28;20208;-70
2022/03/08 09:30:08;;;;;;;11.80;7.87;;;;;;;10.91;26.11;97863.06;5031569;28;20533;-70
2022/03/08 09:32:34;;;;;;;10.60;7.93;;;;;;;11.11;25.97;97854.34;5024616;28;20457;-70
2022/03/08 09:34:59;;;;;;;10.10;7.70;;;;;;;11.06;25.95;97863.44;5032511;28;20434;-70
2022/03/08 09:37:25;;;;;;;9.43;7.70;;;;;;;11.47;25.57;97857.19;5032097;28;20191;-70
2022/03/08 09:39:51;;;;;;;11.70;7.67;;;;;;;11.61;25.03;97859.34;5032436;28;20210;-72
2022/03/08 09:42:17;;;;;;;10.20;7.97;;;;;;;11.52;25.46;97861.03;5032157;28;20636;-71
2022/03/08 09:44:43;;;;;;;13.70;9.00;;;;;;;11.59;25.07;97861.28;5031420;28;20182;-71
2022/03/08 09:47:08;;;;;;;9.07;7.83;;;;;;;11.58;24.94;97864.06;5032185;28;21015;-70
2022/03/08 09:49:34;;;;;;;10.43;7.93;;;;;;;12.03;24.96;97868.63;5031832;28;20461;-70
2022/03/08 09:51:59;;;;;;;13.73;8.30;;;;;;;12.22;24.73;97861.63;5032050;28;20214;-71
2022/03/08 09:54:25;;;;;;;9.90;8.40;;;;;;;11.92;24.33;97871.41;5031621;28;20217;-70
2022/03/08 09:56:50;;;;;;;10.30;7.70;;;;;;;12.10;24.25;97868.88;5031883;28;20190;-70
2022/03/08 09:59:17;;;;;;;11.10;7.63;;;;;;;12.08;24.34;97860.31;5031754;28;20237;-70
2022/03/08 10:01:44;;;;;;;11.00;8.23;;;;;;;12.56;24.42;97858.38;5031426;28;20627;-71
2022/03/08 10:04:09;;;;;;;10.50;7.90;;;;;;;12.78;23.83;97856.28;5031174;28;20429;-72
2022/03/08 10:06:40;;;;;;;10.23;7.80;;;;;;;12.99;23.96;97846.25;5031532;28;20434;-71
2022/03/08 10:09:25;;;;;;;8.33;7.43;;;;;;;13.05;22.85;97845.66;5031541;28;20192;-71
2022/03/08 10:11:55;;;;;;;10.67;7.83;;;;;;;13.14;22.75;97848.34;5017191;28;20493;-70
2022/03/08 10:14:39;;;;;;;9.77;7.50;;;;;;;13.07;22.77;97845.50;5039119;28;20954;-71
2022/03/08 10:17:09;;;;;;;11.17;7.33;;;;;;;12.78;22.86;97845.75;5031611;28;20936;-71
2022/03/08 10:19:45;;;;;;;9.63;7.53;;;;;;;12.83;23.17;97838.25;5023859;28;20569;-70
2022/03/08 10:22:25;;;;;;;10.70;7.13;;;;;;;12.94;22.79;97845.06;5030549;28;20443;-70
2022/03/08 10:24:50;;;;;;;10.97;7.70;;;;;;;12.89;22.29;97837.63;5031441;28;20521;-70
2022/03/08 10:27:16;;;;;;;8.30;7.43;;;;;;;12.85;22.46;97833.66;5031310;28;20793;-70
2022/03/08 10:29:42;;;;;;;9.10;7.70;;;;;;;12.89;22.42;97827.09;5030886;28;20191;-70
2022/03/08 10:32:19;;;;;;;8.13;7.03;;;;;;;12.97;22.18;97824.56;5026463;28;20441;-71
2022/03/08 10:34:46;;;;;;;8.33;6.97;;;;;;;12.95;21.69;97833.56;5030832;28;20605;-71
2022/03/08 10:37:15;;;;;;;9.57;7.17;;;;;;;12.82;21.58;97832.16;5031251;28;20426;-71
2022/03/08 10:39:53;;;;;;;7.60;6.80;;;;;;;13.16;21.48;97815.66;5031216;28;20434;-71
2022/03/08 10:42:30;;;;;;;7.90;6.80;;;;;;;13.47;21.61;97817.03;5012983;28;20535;-72
2022/03/08 10:45:05;;;;;;;7.70;6.20;;;;;;;13.21;21.04;97815.19;4998243;28;20434;-68
2022/03/08 10:47:44;;;;;;;7.90;6.60;;;;;;;13.47;21.02;97822.28;5036202;28;20428;-69
2022/03/08 10:50:11;;;;;;;17.17;7.17;;;;;;;13.66;20.95;97814.16;5021696;28;20457;-68
2022/03/08 10:52:39;;;;;;;13.50;6.80;;;;;;;13.63;20.83;97813.66;5040751;28;20431;-69
2022/03/08 10:55:16;;;;;;;17.30;6.77;;;;;;;13.63;20.76;97814.47;5035883;28;20439;-68
2022/03/08 10:57:43;;;;;;;9.90;7.07;;;;;;;13.61;20.68;97815.63;5032916;28;20426;-69
2022/03/08 11:00:14;;;;;;;7.50;6.37;;;;;;;13.50;20.70;97816.69;5030053;28;20470;-68
2022/03/08 11:02:57;;;;;;;8.03;6.60;;;;;;;13.59;20.34;97821.03;5032330;28;20791;-69
2022/03/08 11:05:25;;;;;;;7.27;6.20;;;;;;;13.16;20.77;97804.28;5030925;28;20441;-69
2022/03/08 11:07:51;;;;;;;7.30;6.60;;;;;;;13.19;20.67;97809.25;5030919;28;20441;-69
2022/03/08 11:10:17;;;;;;;7.80;6.40;;;;;;;13.75;20.54;97807.13;5012889;28;20444;-69
2022/03/08 11:12:43;;;;;;;14.83;6.40;;;;;;;13.71;20.44;97794.44;5031022;28;20880;-69
2022/03/08 11:15:13;;;;;;;9.80;6.70;;;;;;;13.24;20.34;97793.81;5012710;28;20511;-69
2022/03/08 11:17:39;;;;;;;10.37;6.77;;;;;;;13.76;20.13;97802.66;5030790;28;20212;-69
2022/03/08 11:20:07;;;;;;;8.23;6.17;;;;;;;13.59;20.50;97792.06;5030633;28;20451;-68
2022/03/08 11:22:33;;;;;;;8.17;6.40;;;;;;;13.40;20.09;97790.50;5008833;28;20437;-69